sensor_id;sensor_type;location;lat;lon;timestamp;temperature;humidity
37281;DHT22;23169;41.804;12.596;2023-07-13T00:00:53;29.40;1.00
37281;DHT22;23169;41.804;12.596;2023-07-13T00:03:23;29.40;1.00
37281;DHT22;23169;41.804;12.596;2023-07-13T00:05:59;29.60;1.00
37281;DHT22;23169;41.804;12.596;2023-07-13T00:08:31;29.40;1.00
37281;DHT22;23169;41.804;12.596;2023-07-13T00:11:02;29.20;1.00
37281;DHT22;23169;41.804;12.596;2023-07-13T00:13:31;29.10;1.00
37281;DHT22;23169;41.804;12.596;2023-07-13T00:16:00;29.10;1.00
37281;DHT22;23169;41.804;12.596;2023-07-13T00:18:31;29.20;1.00
37281;DHT22;23169;41.804;12.596;2023-07-13T00:21:04;29.30;1.00
37281;DHT22;23169;41.804;12.596;2023-07-13T00:23:35;29.30;1.00
37281;DHT22;23169;41.804;12.596;2023-07-13T00:26:11;29.40;1.00
37281;DHT22;23169;41.804;12.596;2023-07-13T00:28:41;29.50;1.00
37281;DHT22;23169;41.804;12.596;2023-07-13T00:31:12;29.40;1.00
37281;DHT22;23169;41.804;12.596;2023-07-13T00:33:43;29.30;1.00
37281;DHT22;23169;41.804;12.596;2023-07-13T00:36:12;29.30;1.00
37281;DHT22;23169;41.804;12.596;2023-07-13T00:38:41;29.20;1.00
37281;DHT22;23169;41.804;12.596;2023-07-13T00:41:13;29.20;1.00
37281;DHT22;23169;41.804;12.596;2023-07-13T00:43:43;29.40;1.00
37281;DHT22;23169;41.804;12.596;2023-07-13T00:46:27;29.40;1.00
37281;DHT22;23169;41.804;12.596;2023-07-13T00:49:00;29.30;1.00
37281;DHT22;23169;41.804;12.596;2023-07-13T00:51:48;29.30;1.00
37281;DHT22;23169;41.804;12.596;2023-07-13T00:54:24;29.30;1.00
37281;DHT22;23169;41.804;12.596;2023-07-13T00:56:56;29.30;1.00
37281;DHT22;23169;41.804;12.596;2023-07-13T00:59:26;29.40;1.00
37281;DHT22;23169;41.804;12.596;2023-07-13T01:04:27;29.40;1.00
37281;DHT22;23169;41.804;12.596;2023-07-13T01:06:56;29.40;1.00
37281;DHT22;23169;41.804;12.596;2023-07-13T01:09:27;29.30;1.00
37281;DHT22;23169;41.804;12.596;2023-07-13T01:11:58;29.20;1.00
37281;DHT22;23169;41.804;12.596;2023-07-13T01:14:28;29.00;1.00
37281;DHT22;23169;41.804;12.596;2023-07-13T01:16:58;28.90;1.00
37281;DHT22;23169;41.804;12.596;2023-07-13T01:19:45;29.10;1.00
37281;DHT22;23169;41.804;12.596;2023-07-13T01:22:15;29.20;1.00
37281;DHT22;23169;41.804;12.596;2023-07-13T01:24:47;29.30;1.00
37281;DHT22;23169;41.804;12.596;2023-07-13T01:27:22;29.30;1.00
37281;DHT22;23169;41.804;12.596;2023-07-13T01:29:53;29.40;1.00
37281;DHT22;23169;41.804;12.596;2023-07-13T01:32:31;29.30;1.00
37281;DHT22;23169;41.804;12.596;2023-07-13T01:35:01;29.30;1.00
37281;DHT22;23169;41.804;12.596;2023-07-13T01:37:30;29.40;1.00
37281;DHT22;23169;41.804;12.596;2023-07-13T01:40:05;29.30;1.00
37281;DHT22;23169;41.804;12.596;2023-07-13T01:42:34;29.30;1.00
37281;DHT22;23169;41.804;12.596;2023-07-13T01:45:03;29.30;1.00
37281;DHT22;23169;41.804;12.596;2023-07-13T01:47:35;29.30;1.00
37281;DHT22;23169;41.804;12.596;2023-07-13T01:50:04;29.30;1.00
37281;DHT22;23169;41.804;12.596;2023-07-13T01:52:34;29.30;1.00
37281;DHT22;23169;41.804;12.596;2023-07-13T01:55:03;29.30;1.00
37281;DHT22;23169;41.804;12.596;2023-07-13T01:57:33;29.30;1.00
37281;DHT22;23169;41.804;12.596;2023-07-13T02:00:04;29.40;1.00
37281;DHT22;23169;41.804;12.596;2023-07-13T02:02:33;29.40;1.00
37281;DHT22;23169;41.804;12.596;2023-07-13T02:05:02;29.40;1.00
37281;DHT22;23169;41.804;12.596;2023-07-13T02:07:32;29.40;1.00
37281;DHT22;23169;41.804;12.596;2023-07-13T02:10:04;29.40;1.00
37281;DHT22;23169;41.804;12.596;2023-07-13T02:12:34;29.30;1.00
37281;DHT22;23169;41.804;12.596;2023-07-13T02:15:04;29.30;1.00
37281;DHT22;23169;41.804;12.596;2023-07-13T02:17:35;29.20;1.00
37281;DHT22;23169;41.804;12.596;2023-07-13T02:20:05;29.00;1.00
37281;DHT22;23169;41.804;12.596;2023-07-13T02:22:35;29.00;1.00
37281;DHT22;23169;41.804;12.596;2023-07-13T02:25:04;29.10;1.00
37281;DHT22;23169;41.804;12.596;2023-07-13T02:27:35;29.10;1.00
37281;DHT22;23169;41.804;12.596;2023-07-13T02:30:04;29.10;1.00
37281;DHT22;23169;41.804;12.596;2023-07-13T02:32:34;29.10;1.00
37281;DHT22;23169;41.804;12.596;2023-07-13T02:35:04;29.20;1.00
37281;DHT22;23169;41.804;12.596;2023-07-13T02:37:37;29.10;1.00
37281;DHT22;23169;41.804;12.596;2023-07-13T02:40:07;29.20;1.00
37281;DHT22;23169;41.804;12.596;2023-07-13T02:42:39;29.20;1.00
37281;DHT22;23169;41.804;12.596;2023-07-13T02:45:09;29.20;1.00
37281;DHT22;23169;41.804;12.596;2023-07-13T02:47:40;29.20;1.00
37281;DHT22;23169;41.804;12.596;2023-07-13T02:50:12;29.20;1.00
37281;DHT22;23169;41.804;12.596;2023-07-13T02:52:42;29.30;1.00
37281;DHT22;23169;41.804;12.596;2023-07-13T02:55:11;29.30;1.00
37281;DHT22;23169;41.804;12.596;2023-07-13T02:57:41;29.20;1.00
37281;DHT22;23169;41.804;12.596;2023-07-13T03:00:10;29.20;1.00
37281;DHT22;23169;41.804;12.596;2023-07-13T03:02:39;29.30;1.00
37281;DHT22;23169;41.804;12.596;2023-07-13T03:05:09;29.30;1.00
37281;DHT22;23169;41.804;12.596;2023-07-13T03:07:42;29.20;1.00
37281;DHT22;23169;41.804;12.596;2023-07-13T03:10:13;29.20;1.00
37281;DHT22;23169;41.804;12.596;2023-07-13T03:12:42;29.20;1.00
37281;DHT22;23169;41.804;12.596;2023-07-13T03:15:12;29.20;1.00
37281;DHT22;23169;41.804;12.596;2023-07-13T03:17:41;29.10;1.00
37281;DHT22;23169;41.804;12.596;2023-07-13T03:22:43;29.20;1.00
37281;DHT22;23169;41.804;12.596;2023-07-13T03:25:13;29.20;1.00
37281;DHT22;23169;41.804;12.596;2023-07-13T03:27:43;29.10;1.00
37281;DHT22;23169;41.804;12.596;2023-07-13T03:30:12;29.20;1.00
37281;DHT22;23169;41.804;12.596;2023-07-13T03:32:42;29.10;1.00
37281;DHT22;23169;41.804;12.596;2023-07-13T03:35:10;29.10;1.00
37281;DHT22;23169;41.804;12.596;2023-07-13T03:37:39;29.10;1.00
37281;DHT22;23169;41.804;12.596;2023-07-13T03:40:11;29.10;1.00
37281;DHT22;23169;41.804;12.596;2023-07-13T03:42:40;29.10;1.00
37281;DHT22;23169;41.804;12.596;2023-07-13T03:45:10;29.10;1.00
37281;DHT22;23169;41.804;12.596;2023-07-13T03:47:40;29.10;1.00
37281;DHT22;23169;41.804;12.596;2023-07-13T03:50:08;29.00;1.00
37281;DHT22;23169;41.804;12.596;2023-07-13T03:52:37;29.00;1.00
37281;DHT22;23169;41.804;12.596;2023-07-13T03:55:08;29.10;1.00
37281;DHT22;23169;41.804;12.596;2023-07-13T03:57:37;29.00;1.00
37281;DHT22;23169;41.804;12.596;2023-07-13T04:00:06;29.10;1.00
37281;DHT22;23169;41.804;12.596;2023-07-13T04:02:36;29.00;1.00
37281;DHT22;23169;41.804;12.596;2023-07-13T04:05:06;29.00;1.00
37281;DHT22;23169;41.804;12.596;2023-07-13T04:07:35;29.00;1.00
37281;DHT22;23169;41.804;12.596;2023-07-13T04:10:04;29.00;1.00
37281;DHT22;23169;41.804;12.596;2023-07-13T04:12:34;29.00;1.00
37281;DHT22;23169;41.804;12.596;2023-07-13T04:15:03;29.00;1.00
37281;DHT22;23169;41.804;12.596;2023-07-13T04:17:32;29.00;1.00
37281;DHT22;23169;41.804;12.596;2023-07-13T04:20:02;29.00;1.00
37281;DHT22;23169;41.804;12.596;2023-07-13T04:22:32;29.10;1.00
37281;DHT22;23169;41.804;12.596;2023-07-13T04:25:01;29.10;1.00
37281;DHT22;23169;41.804;12.596;2023-07-13T04:27:30;29.10;1.00
37281;DHT22;23169;41.804;12.596;2023-07-13T04:30:01;29.10;1.00
37281;DHT22;23169;41.804;12.596;2023-07-13T04:32:33;29.20;1.00
37281;DHT22;23169;41.804;12.596;2023-07-13T04:35:02;29.20;1.00
37281;DHT22;23169;41.804;12.596;2023-07-13T04:37:31;29.20;1.00
37281;DHT22;23169;41.804;12.596;2023-07-13T04:40:00;29.10;1.00
37281;DHT22;23169;41.804;12.596;2023-07-13T04:42:30;29.10;1.00
37281;DHT22;23169;41.804;12.596;2023-07-13T04:45:00;29.10;1.00
37281;DHT22;23169;41.804;12.596;2023-07-13T04:47:30;29.20;1.00
37281;DHT22;23169;41.804;12.596;2023-07-13T04:49:59;29.30;1.00
37281;DHT22;23169;41.804;12.596;2023-07-13T04:52:28;29.30;1.00
37281;DHT22;23169;41.804;12.596;2023-07-13T04:54:57;29.30;1.00
37281;DHT22;23169;41.804;12.596;2023-07-13T04:57:27;29.40;1.00
37281;DHT22;23169;41.804;12.596;2023-07-13T04:59:56;29.40;1.00
37281;DHT22;23169;41.804;12.596;2023-07-13T05:02:24;29.40;1.00
37281;DHT22;23169;41.804;12.596;2023-07-13T05:04:54;29.40;1.00
37281;DHT22;23169;41.804;12.596;2023-07-13T05:07:23;29.50;1.00
37281;DHT22;23169;41.804;12.596;2023-07-13T05:09:52;29.50;1.00
37281;DHT22;23169;41.804;12.596;2023-07-13T05:12:23;29.60;1.00
37281;DHT22;23169;41.804;12.596;2023-07-13T05:14:52;29.60;1.00
37281;DHT22;23169;41.804;12.596;2023-07-13T05:19:50;29.60;1.00
37281;DHT22;23169;41.804;12.596;2023-07-13T05:22:20;29.60;1.00
37281;DHT22;23169;41.804;12.596;2023-07-13T05:24:49;29.70;1.00
37281;DHT22;23169;41.804;12.596;2023-07-13T05:27:19;29.70;1.00
37281;DHT22;23169;41.804;12.596;2023-07-13T05:32:18;29.70;1.00
37281;DHT22;23169;41.804;12.596;2023-07-13T05:35:03;29.70;1.00
37281;DHT22;23169;41.804;12.596;2023-07-13T05:37:47;29.30;1.00
37281;DHT22;23169;41.804;12.596;2023-07-13T05:40:33;29.80;1.00
37281;DHT22;23169;41.804;12.596;2023-07-13T05:43:02;29.90;1.00
37281;DHT22;23169;41.804;12.596;2023-07-13T05:48:01;30.00;1.00
37281;DHT22;23169;41.804;12.596;2023-07-13T05:50:30;30.00;1.00
37281;DHT22;23169;41.804;12.596;2023-07-13T05:53:04;30.00;1.00
37281;DHT22;23169;41.804;12.596;2023-07-13T05:55:33;30.10;1.00
37281;DHT22;23169;41.804;12.596;2023-07-13T05:58:05;30.10;1.00
37281;DHT22;23169;41.804;12.596;2023-07-13T06:00:35;30.00;1.00
37281;DHT22;23169;41.804;12.596;2023-07-13T06:03:04;29.90;1.00
37281;DHT22;23169;41.804;12.596;2023-07-13T06:05:36;30.00;1.00
37281;DHT22;23169;41.804;12.596;2023-07-13T06:08:07;30.00;1.00
37281;DHT22;23169;41.804;12.596;2023-07-13T06:10:36;30.10;1.00
37281;DHT22;23169;41.804;12.596;2023-07-13T06:13:04;30.20;1.00
37281;DHT22;23169;41.804;12.596;2023-07-13T06:15:33;30.30;1.00
37281;DHT22;23169;41.804;12.596;2023-07-13T06:18:02;30.50;1.00
37281;DHT22;23169;41.804;12.596;2023-07-13T06:20:34;30.50;1.00
37281;DHT22;23169;41.804;12.596;2023-07-13T06:23:03;30.50;1.00
37281;DHT22;23169;41.804;12.596;2023-07-13T06:25:32;30.50;1.00
37281;DHT22;23169;41.804;12.596;2023-07-13T06:28:02;30.50;1.00
37281;DHT22;23169;41.804;12.596;2023-07-13T06:30:31;30.50;1.00
37281;DHT22;23169;41.804;12.596;2023-07-13T06:33:00;30.60;1.00
37281;DHT22;23169;41.804;12.596;2023-07-13T06:35:29;30.60;1.00
37281;DHT22;23169;41.804;12.596;2023-07-13T06:38:00;30.50;1.00
37281;DHT22;23169;41.804;12.596;2023-07-13T06:40:30;30.60;1.00
37281;DHT22;23169;41.804;12.596;2023-07-13T06:42:59;30.60;1.00
37281;DHT22;23169;41.804;12.596;2023-07-13T06:45:29;30.70;1.00
37281;DHT22;23169;41.804;12.596;2023-07-13T06:47:58;30.70;1.00
37281;DHT22;23169;41.804;12.596;2023-07-13T06:50:26;30.70;1.00
37281;DHT22;23169;41.804;12.596;2023-07-13T06:52:55;30.70;1.00
37281;DHT22;23169;41.804;12.596;2023-07-13T06:55:23;30.60;1.00
37281;DHT22;23169;41.804;12.596;2023-07-13T06:57:55;30.70;1.00
37281;DHT22;23169;41.804;12.596;2023-07-13T07:02:52;30.80;1.00
37281;DHT22;23169;41.804;12.596;2023-07-13T07:05:23;30.70;1.00
37281;DHT22;23169;41.804;12.596;2023-07-13T07:07:54;30.80;1.00
37281;DHT22;23169;41.804;12.596;2023-07-13T07:10:23;30.80;1.00
37281;DHT22;23169;41.804;12.596;2023-07-13T07:12:52;30.90;1.00
37281;DHT22;23169;41.804;12.596;2023-07-13T07:15:20;30.90;1.00
37281;DHT22;23169;41.804;12.596;2023-07-13T07:17:49;31.10;1.00
37281;DHT22;23169;41.804;12.596;2023-07-13T07:20:17;31.20;1.00
37281;DHT22;23169;41.804;12.596;2023-07-13T07:22:47;31.20;1.00
37281;DHT22;23169;41.804;12.596;2023-07-13T07:25:16;31.20;1.00
37281;DHT22;23169;41.804;12.596;2023-07-13T07:27:45;31.20;1.00
37281;DHT22;23169;41.804;12.596;2023-07-13T07:30:15;31.10;1.00
37281;DHT22;23169;41.804;12.596;2023-07-13T07:32:45;31.30;1.00
37281;DHT22;23169;41.804;12.596;2023-07-13T07:35:13;31.30;1.00
37281;DHT22;23169;41.804;12.596;2023-07-13T07:37:42;31.30;1.00
37281;DHT22;23169;41.804;12.596;2023-07-13T07:40:11;31.40;1.00
37281;DHT22;23169;41.804;12.596;2023-07-13T07:42:40;31.40;1.00
37281;DHT22;23169;41.804;12.596;2023-07-13T07:45:09;31.50;1.00
37281;DHT22;23169;41.804;12.596;2023-07-13T07:47:39;31.60;1.00
37281;DHT22;23169;41.804;12.596;2023-07-13T07:50:09;31.70;1.00
37281;DHT22;23169;41.804;12.596;2023-07-13T07:52:38;31.90;1.00
37281;DHT22;23169;41.804;12.596;2023-07-13T07:55:08;32.00;1.00
37281;DHT22;23169;41.804;12.596;2023-07-13T07:57:36;31.90;1.00
37281;DHT22;23169;41.804;12.596;2023-07-13T08:00:05;32.00;1.00
37281;DHT22;23169;41.804;12.596;2023-07-13T08:05:04;31.90;1.00
37281;DHT22;23169;41.804;12.596;2023-07-13T08:07:34;31.90;1.00
37281;DHT22;23169;41.804;12.596;2023-07-13T08:10:04;31.80;1.00
37281;DHT22;23169;41.804;12.596;2023-07-13T08:12:37;32.00;1.00
37281;DHT22;23169;41.804;12.596;2023-07-13T08:15:10;31.90;1.00
37281;DHT22;23169;41.804;12.596;2023-07-13T08:17:39;31.80;1.00
37281;DHT22;23169;41.804;12.596;2023-07-13T08:20:08;32.00;1.00
37281;DHT22;23169;41.804;12.596;2023-07-13T08:22:38;32.20;1.00
37281;DHT22;23169;41.804;12.596;2023-07-13T08:25:07;32.00;1.00
37281;DHT22;23169;41.804;12.596;2023-07-13T08:27:36;32.00;1.00
37281;DHT22;23169;41.804;12.596;2023-07-13T08:30:06;32.20;1.00
37281;DHT22;23169;41.804;12.596;2023-07-13T08:32:37;32.00;1.00
37281;DHT22;23169;41.804;12.596;2023-07-13T08:35:06;32.00;1.00
37281;DHT22;23169;41.804;12.596;2023-07-13T08:37:35;32.10;1.00
37281;DHT22;23169;41.804;12.596;2023-07-13T08:40:05;32.10;1.00
37281;DHT22;23169;41.804;12.596;2023-07-13T08:42:51;32.00;1.00
37281;DHT22;23169;41.804;12.596;2023-07-13T08:45:46;32.20;1.00
37281;DHT22;23169;41.804;12.596;2023-07-13T08:48:27;32.50;1.00
37281;DHT22;23169;41.804;12.596;2023-07-13T08:53:50;32.30;1.00
37281;DHT22;23169;41.804;12.596;2023-07-13T08:56:23;32.50;1.00
37281;DHT22;23169;41.804;12.596;2023-07-13T08:59:02;32.40;1.00
37281;DHT22;23169;41.804;12.596;2023-07-13T09:02:01;32.60;1.00
37281;DHT22;23169;41.804;12.596;2023-07-13T09:04:37;32.50;1.00
37281;DHT22;23169;41.804;12.596;2023-07-13T09:17:50;32.80;1.00
37281;DHT22;23169;41.804;12.596;2023-07-13T09:23:02;33.00;1.00
37281;DHT22;23169;41.804;12.596;2023-07-13T09:25:34;33.30;1.00
37281;DHT22;23169;41.804;12.596;2023-07-13T09:28:18;32.90;1.00
37281;DHT22;23169;41.804;12.596;2023-07-13T09:33:31;32.50;1.00
37281;DHT22;23169;41.804;12.596;2023-07-13T09:36:01;32.30;1.00
37281;DHT22;23169;41.804;12.596;2023-07-13T09:38:37;32.30;1.00
37281;DHT22;23169;41.804;12.596;2023-07-13T09:44:18;32.60;1.00
37281;DHT22;23169;41.804;12.596;2023-07-13T09:46:57;32.70;1.00
37281;DHT22;23169;41.804;12.596;2023-07-13T09:49:27;32.90;1.00
37281;DHT22;23169;41.804;12.596;2023-07-13T09:52:15;32.90;1.00
37281;DHT22;23169;41.804;12.596;2023-07-13T09:54:46;32.80;1.00
37281;DHT22;23169;41.804;12.596;2023-07-13T09:57:19;33.00;1.00
37281;DHT22;23169;41.804;12.596;2023-07-13T09:59:51;33.20;1.00
37281;DHT22;23169;41.804;12.596;2023-07-13T10:05:06;33.50;1.00
37281;DHT22;23169;41.804;12.596;2023-07-13T10:07:39;33.30;1.00
37281;DHT22;23169;41.804;12.596;2023-07-13T10:10:15;33.60;1.00
37281;DHT22;23169;41.804;12.596;2023-07-13T10:12:45;33.40;1.00
37281;DHT22;23169;41.804;12.596;2023-07-13T10:15:21;33.60;1.00
37281;DHT22;23169;41.804;12.596;2023-07-13T10:17:51;34.00;1.00
37281;DHT22;23169;41.804;12.596;2023-07-13T10:20:21;33.50;1.00
37281;DHT22;23169;41.804;12.596;2023-07-13T10:23:02;33.00;1.00
37281;DHT22;23169;41.804;12.596;2023-07-13T10:25:34;32.90;1.00
37281;DHT22;23169;41.804;12.596;2023-07-13T10:30:55;32.60;1.00
37281;DHT22;23169;41.804;12.596;2023-07-13T10:33:28;32.90;1.00
37281;DHT22;23169;41.804;12.596;2023-07-13T10:36:14;32.80;1.00
37281;DHT22;23169;41.804;12.596;2023-07-13T10:38:47;33.00;1.00
37281;DHT22;23169;41.804;12.596;2023-07-13T10:41:19;33.00;1.00
37281;DHT22;23169;41.804;12.596;2023-07-13T10:43:54;32.60;1.00
37281;DHT22;23169;41.804;12.596;2023-07-13T10:46:28;32.60;1.00
37281;DHT22;23169;41.804;12.596;2023-07-13T10:49:00;32.90;1.00
37281;DHT22;23169;41.804;12.596;2023-07-13T10:51:30;32.80;1.00
37281;DHT22;23169;41.804;12.596;2023-07-13T10:54:19;32.90;1.00
37281;DHT22;23169;41.804;12.596;2023-07-13T10:56:53;32.90;1.00
37281;DHT22;23169;41.804;12.596;2023-07-13T10:59:37;32.90;1.00
37281;DHT22;23169;41.804;12.596;2023-07-13T11:04:43;32.80;1.00
37281;DHT22;23169;41.804;12.596;2023-07-13T11:07:31;33.00;1.00
37281;DHT22;23169;41.804;12.596;2023-07-13T11:18:47;32.40;1.00
37281;DHT22;23169;41.804;12.596;2023-07-13T11:21:20;32.90;1.00
37281;DHT22;23169;41.804;12.596;2023-07-13T11:26:43;32.50;1.00
37281;DHT22;23169;41.804;12.596;2023-07-13T11:31:56;32.70;1.00
37281;DHT22;23169;41.804;12.596;2023-07-13T11:34:37;32.70;1.00
37281;DHT22;23169;41.804;12.596;2023-07-13T11:37:12;32.90;1.00
37281;DHT22;23169;41.804;12.596;2023-07-13T11:39:44;33.10;1.00
37281;DHT22;23169;41.804;12.596;2023-07-13T11:42:16;32.80;1.00
37281;DHT22;23169;41.804;12.596;2023-07-13T11:44:49;32.80;1.00
37281;DHT22;23169;41.804;12.596;2023-07-13T11:47:20;33.20;1.00
37281;DHT22;23169;41.804;12.596;2023-07-13T11:49:52;32.90;1.00
37281;DHT22;23169;41.804;12.596;2023-07-13T11:52:23;32.70;1.00
37281;DHT22;23169;41.804;12.596;2023-07-13T11:54:56;32.60;1.00
37281;DHT22;23169;41.804;12.596;2023-07-13T11:57:29;32.40;1.00
37281;DHT22;23169;41.804;12.596;2023-07-13T12:00:03;32.50;1.00
37281;DHT22;23169;41.804;12.596;2023-07-13T12:02:40;32.40;1.00
37281;DHT22;23169;41.804;12.596;2023-07-13T12:05:13;32.20;1.00
37281;DHT22;23169;41.804;12.596;2023-07-13T12:07:44;32.10;1.00
37281;DHT22;23169;41.804;12.596;2023-07-13T12:10:18;32.60;1.00
37281;DHT22;23169;41.804;12.596;2023-07-13T12:12:53;32.50;1.00
37281;DHT22;23169;41.804;12.596;2023-07-13T12:15:26;32.40;1.00
37281;DHT22;23169;41.804;12.596;2023-07-13T12:17:57;32.60;1.00
37281;DHT22;23169;41.804;12.596;2023-07-13T12:20:27;32.50;1.00
37281;DHT22;23169;41.804;12.596;2023-07-13T12:22:58;32.40;1.00
37281;DHT22;23169;41.804;12.596;2023-07-13T12:25:27;32.00;1.00
37281;DHT22;23169;41.804;12.596;2023-07-13T12:27:56;32.20;1.00
37281;DHT22;23169;41.804;12.596;2023-07-13T12:30:28;32.60;1.00
37281;DHT22;23169;41.804;12.596;2023-07-13T12:33:02;32.80;1.00
37281;DHT22;23169;41.804;12.596;2023-07-13T12:35:48;33.30;1.00
37281;DHT22;23169;41.804;12.596;2023-07-13T12:38:18;33.10;1.00
37281;DHT22;23169;41.804;12.596;2023-07-13T12:40:50;33.10;1.00
37281;DHT22;23169;41.804;12.596;2023-07-13T12:43:22;33.50;1.00
37281;DHT22;23169;41.804;12.596;2023-07-13T12:46:00;33.30;1.00
37281;DHT22;23169;41.804;12.596;2023-07-13T12:48:39;33.10;1.00
37281;DHT22;23169;41.804;12.596;2023-07-13T12:51:11;33.00;1.00
37281;DHT22;23169;41.804;12.596;2023-07-13T12:53:49;32.70;1.00
37281;DHT22;23169;41.804;12.596;2023-07-13T12:56:22;32.90;1.00
37281;DHT22;23169;41.804;12.596;2023-07-13T12:59:03;32.60;1.00
37281;DHT22;23169;41.804;12.596;2023-07-13T13:01:35;33.40;1.00
37281;DHT22;23169;41.804;12.596;2023-07-13T13:04:09;33.10;1.00
37281;DHT22;23169;41.804;12.596;2023-07-13T13:06:40;32.80;1.00
37281;DHT22;23169;41.804;12.596;2023-07-13T13:09:15;32.60;1.00
37281;DHT22;23169;41.804;12.596;2023-07-13T13:11:45;32.60;1.00
37281;DHT22;23169;41.804;12.596;2023-07-13T13:14:16;32.50;1.00
37281;DHT22;23169;41.804;12.596;2023-07-13T13:16:48;32.70;1.00
37281;DHT22;23169;41.804;12.596;2023-07-13T13:19:26;32.60;1.00
37281;DHT22;23169;41.804;12.596;2023-07-13T13:21:56;32.50;1.00
37281;DHT22;23169;41.804;12.596;2023-07-13T13:24:27;32.00;1.00
37281;DHT22;23169;41.804;12.596;2023-07-13T13:26:57;32.00;1.00
37281;DHT22;23169;41.804;12.596;2023-07-13T13:29:26;32.00;1.00
37281;DHT22;23169;41.804;12.596;2023-07-13T13:31:55;32.10;1.00
37281;DHT22;23169;41.804;12.596;2023-07-13T13:34:25;31.70;1.00
37281;DHT22;23169;41.804;12.596;2023-07-13T13:36:54;31.80;1.00
37281;DHT22;23169;41.804;12.596;2023-07-13T13:39:24;31.70;1.00
37281;DHT22;23169;41.804;12.596;2023-07-13T13:41:53;31.90;1.00
37281;DHT22;23169;41.804;12.596;2023-07-13T13:44:22;32.10;1.00
37281;DHT22;23169;41.804;12.596;2023-07-13T13:46:55;32.40;1.00
37281;DHT22;23169;41.804;12.596;2023-07-13T13:49:26;32.90;1.00
37281;DHT22;23169;41.804;12.596;2023-07-13T13:51:55;32.90;1.00
37281;DHT22;23169;41.804;12.596;2023-07-13T13:54:24;33.10;1.00
37281;DHT22;23169;41.804;12.596;2023-07-13T13:56:55;33.80;1.00
37281;DHT22;23169;41.804;12.596;2023-07-13T13:59:24;34.60;1.00
37281;DHT22;23169;41.804;12.596;2023-07-13T14:01:53;34.40;1.00
37281;DHT22;23169;41.804;12.596;2023-07-13T14:04:22;33.60;1.00
37281;DHT22;23169;41.804;12.596;2023-07-13T14:06:51;33.90;1.00
37281;DHT22;23169;41.804;12.596;2023-07-13T14:09:20;33.90;1.00
37281;DHT22;23169;41.804;12.596;2023-07-13T14:11:50;33.60;1.00
37281;DHT22;23169;41.804;12.596;2023-07-13T14:14:23;33.60;1.00
37281;DHT22;23169;41.804;12.596;2023-07-13T14:16:54;33.30;1.00
37281;DHT22;23169;41.804;12.596;2023-07-13T14:19:23;33.10;1.00
37281;DHT22;23169;41.804;12.596;2023-07-13T14:21:52;33.30;1.00
37281;DHT22;23169;41.804;12.596;2023-07-13T14:24:21;33.20;1.00
37281;DHT22;23169;41.804;12.596;2023-07-13T14:26:50;33.30;1.00
37281;DHT22;23169;41.804;12.596;2023-07-13T14:29:19;33.10;1.00
37281;DHT22;23169;41.804;12.596;2023-07-13T14:31:48;32.90;1.00
37281;DHT22;23169;41.804;12.596;2023-07-13T14:34:17;33.10;1.00
37281;DHT22;23169;41.804;12.596;2023-07-13T14:36:48;33.60;1.00
37281;DHT22;23169;41.804;12.596;2023-07-13T14:39:20;33.70;1.00
37281;DHT22;23169;41.804;12.596;2023-07-13T14:41:55;33.30;1.00
37281;DHT22;23169;41.804;12.596;2023-07-13T14:44:29;32.70;1.00
37281;DHT22;23169;41.804;12.596;2023-07-13T14:47:03;33.10;1.00
37281;DHT22;23169;41.804;12.596;2023-07-13T14:49:42;32.90;1.00
37281;DHT22;23169;41.804;12.596;2023-07-13T14:52:20;33.70;1.00
37281;DHT22;23169;41.804;12.596;2023-07-13T14:54:51;33.20;1.00
37281;DHT22;23169;41.804;12.596;2023-07-13T14:57:20;32.90;1.00
37281;DHT22;23169;41.804;12.596;2023-07-13T14:59:49;32.70;1.00
37281;DHT22;23169;41.804;12.596;2023-07-13T15:04:55;33.10;1.00
37281;DHT22;23169;41.804;12.596;2023-07-13T15:07:25;33.30;1.00
37281;DHT22;23169;41.804;12.596;2023-07-13T15:09:54;33.70;1.00
37281;DHT22;23169;41.804;12.596;2023-07-13T15:12:22;32.90;1.00
37281;DHT22;23169;41.804;12.596;2023-07-13T15:14:51;32.50;1.00
37281;DHT22;23169;41.804;12.596;2023-07-13T15:17:28;32.70;1.00
37281;DHT22;23169;41.804;12.596;2023-07-13T15:19:58;32.80;1.00
37281;DHT22;23169;41.804;12.596;2023-07-13T15:22:28;32.70;1.00
37281;DHT22;23169;41.804;12.596;2023-07-13T15:24:57;32.70;1.00
37281;DHT22;23169;41.804;12.596;2023-07-13T15:27:26;33.10;1.00
37281;DHT22;23169;41.804;12.596;2023-07-13T15:29:55;33.30;1.00
37281;DHT22;23169;41.804;12.596;2023-07-13T15:32:23;33.50;1.00
37281;DHT22;23169;41.804;12.596;2023-07-13T15:34:52;33.20;1.00
37281;DHT22;23169;41.804;12.596;2023-07-13T15:37:23;33.00;1.00
37281;DHT22;23169;41.804;12.596;2023-07-13T15:39:52;33.10;1.00
37281;DHT22;23169;41.804;12.596;2023-07-13T15:42:24;32.80;1.00
37281;DHT22;23169;41.804;12.596;2023-07-13T15:44:53;32.60;1.00
37281;DHT22;23169;41.804;12.596;2023-07-13T15:47:22;32.40;1.00
37281;DHT22;23169;41.804;12.596;2023-07-13T15:49:51;32.40;1.00
37281;DHT22;23169;41.804;12.596;2023-07-13T15:52:24;32.90;1.00
37281;DHT22;23169;41.804;12.596;2023-07-13T15:54:53;32.70;1.00
37281;DHT22;23169;41.804;12.596;2023-07-13T15:57:22;32.50;1.00
37281;DHT22;23169;41.804;12.596;2023-07-13T15:59:50;32.00;1.00
37281;DHT22;23169;41.804;12.596;2023-07-13T16:02:34;32.10;1.00
37281;DHT22;23169;41.804;12.596;2023-07-13T16:05:03;32.30;1.00
37281;DHT22;23169;41.804;12.596;2023-07-13T16:07:32;32.20;1.00
37281;DHT22;23169;41.804;12.596;2023-07-13T16:10:01;31.70;1.00
37281;DHT22;23169;41.804;12.596;2023-07-13T16:12:32;31.90;1.00
37281;DHT22;23169;41.804;12.596;2023-07-13T16:15:02;32.20;1.00
37281;DHT22;23169;41.804;12.596;2023-07-13T16:17:31;31.70;1.00
37281;DHT22;23169;41.804;12.596;2023-07-13T16:20:02;31.70;1.00
37281;DHT22;23169;41.804;12.596;2023-07-13T16:22:33;31.50;1.00
37281;DHT22;23169;41.804;12.596;2023-07-13T16:25:02;31.30;1.00
37281;DHT22;23169;41.804;12.596;2023-07-13T16:27:35;31.30;1.00
37281;DHT22;23169;41.804;12.596;2023-07-13T16:30:29;30.90;1.00
37281;DHT22;23169;41.804;12.596;2023-07-13T16:33:00;30.70;1.00
37281;DHT22;23169;41.804;12.596;2023-07-13T16:35:39;30.40;1.00
37281;DHT22;23169;41.804;12.596;2023-07-13T16:38:18;30.40;1.00
37281;DHT22;23169;41.804;12.596;2023-07-13T16:40:48;30.20;1.00
37281;DHT22;23169;41.804;12.596;2023-07-13T16:46:00;30.30;1.00
37281;DHT22;23169;41.804;12.596;2023-07-13T16:48:34;30.30;1.00
37281;DHT22;23169;41.804;12.596;2023-07-13T16:51:02;30.20;1.00
37281;DHT22;23169;41.804;12.596;2023-07-13T16:53:33;30.10;1.00
37281;DHT22;23169;41.804;12.596;2023-07-13T16:56:03;30.00;1.00
37281;DHT22;23169;41.804;12.596;2023-07-13T16:58:36;29.80;1.00
37281;DHT22;23169;41.804;12.596;2023-07-13T17:01:05;29.80;1.00
37281;DHT22;23169;41.804;12.596;2023-07-13T17:03:34;29.90;1.00